createdAt,value
2018-09-03T00:00:35.209Z,102535.49
2018-09-03T00:03:33.729Z,102538.66
2018-09-03T00:06:31.568Z,102533.27
2018-09-03T00:09:30.856Z,102538.66
2018-09-03T00:12:28.885Z,102531.53
2018-09-03T00:15:27.148Z,102532.52
2018-09-03T00:18:40.268Z,102526.72
2018-09-03T00:21:39.616Z,102533.86
2018-09-03T00:24:38.598Z,102537.50
2018-09-03T00:27:36.833Z,102536.63
2018-09-03T00:30:34.981Z,102536.63
2018-09-03T00:33:39.084Z,102538.97
2018-09-03T00:36:43.270Z,102541.66
2018-09-03T00:39:47.320Z,102540.78
2018-09-03T00:42:51.303Z,102543.01
2018-09-03T00:45:56.157Z,102540.78
2018-09-03T00:48:54.781Z,102542.13
2018-09-03T00:51:52.970Z,102545.23
2018-09-03T00:54:51.305Z,102541.19
2018-09-03T00:57:49.482Z,102540.31
2018-09-03T01:00:47.318Z,102543.01
2018-09-03T01:03:46.369Z,102542.02
2018-09-03T01:06:44.515Z,102536.16
2018-09-03T01:09:42.724Z,102533.46
2018-09-03T01:12:40.589Z,102534.34
2018-09-03T01:15:39.972Z,102533.46
2018-09-03T01:18:38.960Z,102532.11
2018-09-03T01:21:37.970Z,102528.94
2018-09-03T01:24:36.981Z,102529.81
2018-09-03T01:27:35.116Z,102522.20
2018-09-03T01:30:33.119Z,102524.90
2018-09-03T01:33:31.254Z,102524.42
2018-09-03T01:36:30.278Z,102524.42
2018-09-03T01:39:31.442Z,102520.86
2018-09-03T01:42:29.637Z,102525.77
2018-09-03T01:45:28.053Z,102522.68
2018-09-03T01:48:27.734Z,102516.53
2018-09-03T01:51:25.972Z,102517.41
2018-09-03T01:54:24.062Z,102522.79
2018-09-03T01:57:22.554Z,102526.36
2018-09-03T02:00:21.074Z,102523.27
2018-09-03T02:03:19.108Z,102526.44
2018-09-03T02:06:17.099Z,102523.38
2018-09-03T02:09:15.016Z,102522.03
2018-09-03T02:12:17.329Z,102523.38
2018-09-03T02:15:15.477Z,102520.69
2018-09-03T02:18:13.280Z,102517.00
2018-09-03T02:21:12.729Z,102519.33
2018-09-03T02:24:11.829Z,102508.55
2018-09-03T02:27:09.982Z,102512.20
2018-09-03T02:30:07.811Z,102513.15
2018-09-03T02:33:07.043Z,102511.33
2018-09-03T02:36:06.098Z,102509.98
2018-09-03T02:39:04.351Z,102513.66
2018-09-03T02:42:02.182Z,102504.70
2018-09-03T02:45:00.198Z,102502.00
2018-09-03T02:47:58.483Z,102504.22
2018-09-03T02:50:56.585Z,102501.89
2018-09-03T02:53:54.588Z,102499.20
2018-09-03T02:56:52.933Z,102501.89
2018-09-03T02:59:52.086Z,102503.64
2018-09-03T03:02:50.446Z,102499.12
2018-09-03T03:05:48.337Z,102503.64
2018-09-03T03:08:47.709Z,102497.77
2018-09-03T03:11:47.064Z,102496.42
2018-09-03T03:14:45.112Z,102495.55
2018-09-03T03:17:43.301Z,102490.16
2018-09-03T03:20:41.450Z,102494.09
2018-09-03T03:23:39.764Z,102486.98
2018-09-03T03:26:38.031Z,102487.83
2018-09-03T03:29:35.964Z,102491.39
2018-09-03T03:32:34.161Z,102486.48
2018-09-03T03:35:32.289Z,102482.83
2018-09-03T03:38:30.579Z,102489.09
2018-09-03T03:41:28.645Z,102480.61
2018-09-03T03:44:26.806Z,102483.70
2018-09-03T03:47:24.978Z,102479.27
2018-09-03T03:50:23.301Z,102482.83
2018-09-03T03:53:21.284Z,102475.62
2018-09-03T03:56:19.753Z,102473.00
2018-09-03T03:59:17.730Z,102475.22
2018-09-03T04:02:17.032Z,102475.70
2018-09-03T04:05:14.983Z,102477.55
2018-09-03T04:08:13.654Z,102472.16
2018-09-03T04:11:11.814Z,102470.81
2018-09-03T04:14:11.234Z,102471.29
2018-09-03T04:17:09.877Z,102475.33
2018-09-03T04:20:10.209Z,102475.33
2018-09-03T04:23:08.192Z,102470.89
2018-09-03T04:26:06.180Z,102471.77
2018-09-03T04:29:04.226Z,102467.72
2018-09-03T04:32:02.439Z,102466.38
2018-09-03T04:35:00.365Z,102472.16
2018-09-03T04:37:58.797Z,102470.42
2018-09-03T04:40:56.782Z,102469.94
2018-09-03T04:43:55.160Z,102473.12
2018-09-03T04:46:53.341Z,102470.81
2018-09-03T04:49:51.734Z,102471.77
2018-09-03T04:52:49.695Z,102466.38
2018-09-03T04:55:48.938Z,102465.50
2018-09-03T04:58:47.034Z,102465.42
2018-09-03T05:01:45.397Z,102474.35
2018-09-03T05:04:43.407Z,102470.70
2018-09-03T05:07:41.761Z,102468.88
2018-09-03T05:10:39.740Z,102471.10
2018-09-03T05:13:37.970Z,102469.64
2018-09-03T05:16:36.230Z,102469.53
2018-09-03T05:19:34.607Z,102467.63
2018-09-03T05:22:32.553Z,102460.89
2018-09-03T05:25:30.601Z,102463.47
2018-09-03T05:28:29.757Z,102465.69
2018-09-03T05:31:27.927Z,102457.02
2018-09-03T05:34:25.766Z,102458.65
2018-09-03T05:37:24.240Z,102455.36
2018-09-03T05:40:23.050Z,102458.84
2018-09-03T05:43:21.072Z,102460.08
2018-09-03T05:46:20.060Z,102464.52
2018-09-03T05:49:18.660Z,102455.45
2018-09-03T05:52:16.898Z,102468.85
2018-09-03T05:55:15.319Z,102468.73
2018-09-03T05:58:13.630Z,102472.78
2018-09-03T06:01:12.538Z,102470.09
2018-09-03T06:04:11.525Z,102473.18
2018-09-03T06:07:09.542Z,102476.23
2018-09-03T06:10:07.801Z,102476.23
2018-09-03T06:13:06.338Z,102469.50
2018-09-03T06:16:05.481Z,102469.50
2018-09-03T06:19:03.571Z,102466.33
2018-09-03T06:22:02.790Z,102465.38
2018-09-03T06:25:01.365Z,102468.43
2018-09-03T06:27:59.410Z,102471.08
2018-09-03T06:30:57.581Z,102471.55
2018-09-03T06:33:55.987Z,102470.61
2018-09-03T06:36:54.092Z,102472.70
2018-09-03T06:39:51.998Z,102475.77
2018-09-03T06:42:50.308Z,102473.47
2018-09-03T06:45:48.492Z,102473.87
2018-09-03T06:48:46.920Z,102474.63
2018-09-03T06:51:45.859Z,102470.94
2018-09-03T06:54:43.968Z,102467.69
2018-09-03T06:57:42.068Z,102469.79
2018-09-03T07:00:40.158Z,102472.29
2018-09-03T07:03:39.108Z,102473.92
2018-09-03T07:06:37.420Z,102475.07
2018-09-03T07:09:35.495Z,102469.56
2018-09-03T07:12:33.487Z,102467.63
2018-09-03T07:15:31.722Z,102467.53
2018-09-03T07:18:29.612Z,102466.47
2018-09-03T07:21:27.683Z,102468.58
2018-09-03T07:24:26.014Z,102469.33
2018-09-03T07:27:25.357Z,102463.84
2018-09-03T07:30:23.648Z,102456.98
2018-09-03T07:33:21.707Z,102453.81
2018-09-03T07:36:20.515Z,102458.61
2018-09-03T07:39:20.041Z,102459.48
2018-09-03T07:42:18.476Z,102456.67
2018-09-03T07:45:16.641Z,102461.98
2018-09-03T07:48:15.259Z,102457.45
2018-09-03T07:51:13.302Z,102461.39
2018-09-03T07:54:11.297Z,102454.16
2018-09-03T07:57:09.095Z,102451.83
2018-09-03T08:00:07.477Z,102453.09
2018-09-03T08:03:06.478Z,102457.50
2018-09-03T08:06:04.492Z,102453.84
2018-09-03T08:09:02.728Z,102450.67
2018-09-03T08:12:00.949Z,102450.67
2018-09-03T08:14:59.185Z,102448.45
2018-09-03T08:17:57.256Z,102443.92
2018-09-03T08:20:55.218Z,102440.75
2018-09-03T08:23:53.413Z,102440.75
2018-09-03T08:26:52.609Z,102440.63
2018-09-03T08:29:50.758Z,102433.13
2018-09-03T08:32:48.877Z,102437.06
2018-09-03T08:35:47.001Z,102433.13
2018-09-03T08:38:45.036Z,102426.86
2018-09-03T08:41:44.289Z,102430.44
2018-09-03T08:44:42.608Z,102422.33
2018-09-03T08:47:40.874Z,102422.81
2018-09-03T08:50:39.794Z,102422.81
2018-09-03T08:53:39.232Z,102424.16
2018-09-03T08:56:38.288Z,102425.51
2018-09-03T08:59:36.758Z,102421.07
2018-09-03T09:02:35.489Z,102417.02
2018-09-03T09:05:33.726Z,102414.84
2018-09-03T09:08:31.577Z,102413.97
2018-09-03T09:11:29.894Z,102412.61
2018-09-03T09:14:28.701Z,102407.30
2018-09-03T09:17:26.996Z,102407.22
2018-09-03T09:20:24.870Z,102401.42
2018-09-03T09:23:23.844Z,102401.82
2018-09-03T09:26:21.862Z,102393.33
2018-09-03T09:29:20.126Z,102392.46
2018-09-03T09:32:18.009Z,102387.45
2018-09-03T09:35:16.393Z,102382.53
2018-09-03T09:38:15.786Z,102378.97
2018-09-03T09:41:13.860Z,102370.39
2018-09-03T09:44:12.950Z,102378.48
2018-09-03T09:47:10.833Z,102373.57
2018-09-03T09:50:08.905Z,102374.56
2018-09-03T09:53:08.112Z,102375.79
2018-09-03T09:56:06.342Z,102370.03
2018-09-03T09:59:05.302Z,102366.47
2018-09-03T10:02:04.600Z,102364.25
2018-09-03T10:05:03.831Z,102360.67
2018-09-03T10:08:02.103Z,102355.28
2018-09-03T10:11:00.723Z,102360.20
2018-09-03T10:13:58.696Z,102355.76
2018-09-03T10:16:56.965Z,102348.17
2018-09-03T10:19:54.861Z,102350.48
2018-09-03T10:22:53.004Z,102353.18
2018-09-03T10:25:51.217Z,102351.44
2018-09-03T10:28:49.532Z,102347.51
2018-09-03T10:31:48.012Z,102343.46
2018-09-03T10:34:47.170Z,102342.20
2018-09-03T10:37:44.938Z,102344.06
2018-09-03T10:40:43.112Z,102334.22
2018-09-03T10:43:41.322Z,102334.70
2018-09-03T10:46:39.360Z,102335.58
2018-09-03T10:49:38.546Z,102330.77
2018-09-03T10:52:37.914Z,102327.59
2018-09-03T10:55:36.053Z,102321.33
2018-09-03T10:58:34.309Z,102319.11
2018-09-03T11:01:32.346Z,102321.93
2018-09-03T11:04:30.366Z,102314.80
2018-09-03T11:07:28.366Z,102313.05
2018-09-03T11:10:26.546Z,102307.66
2018-09-03T11:13:25.542Z,102305.47
2018-09-03T11:16:23.917Z,102296.98
2018-09-03T11:19:23.256Z,102298.45
2018-09-03T11:22:21.810Z,102297.10
2018-09-03T11:25:20.852Z,102299.89
2018-09-03T11:28:19.183Z,102296.32
2018-09-03T11:31:17.405Z,102295.84
2018-09-03T11:34:15.318Z,102286.12
2018-09-03T11:37:13.100Z,102293.27
2018-09-03T11:40:11.245Z,102285.17
2018-09-03T11:43:09.512Z,102285.65
2018-09-03T11:46:07.555Z,102277.91
2018-09-03T11:49:05.351Z,102279.78
2018-09-03T11:52:03.715Z,102270.81
2018-09-03T11:55:01.817Z,102268.12
2018-09-03T11:58:00.142Z,102263.68
2018-09-03T12:00:59.158Z,102265.42
2018-09-03T12:03:57.554Z,102264.55
2018-09-03T12:07:03.715Z,102259.16
2018-09-03T12:10:01.866Z,102256.84
2018-09-03T12:12:59.709Z,102256.45
2018-09-03T12:16:31.679Z,102250.94
2018-09-03T12:19:29.522Z,102251.54
2018-09-03T12:22:27.952Z,102247.13
2018-09-03T12:25:25.993Z,102244.53
2018-09-03T12:28:24.341Z,102234.13
2018-09-03T12:31:22.931Z,102232.78
2018-09-03T12:34:21.165Z,102224.69
2018-09-03T12:37:19.021Z,102224.69
2018-09-03T12:40:17.429Z,102218.42
2018-09-03T12:43:15.482Z,102214.38
2018-09-03T12:46:15.601Z,102208.98
2018-09-03T12:49:13.294Z,102206.28
2018-09-03T12:52:11.770Z,102201.84
2018-09-03T12:55:10.264Z,102194.62
2018-09-03T12:58:08.421Z,102193.75
2018-09-03T13:01:06.193Z,102190.70
2018-09-03T13:04:05.454Z,102181.27
2018-09-03T13:07:03.377Z,102183.95
2018-09-03T13:10:01.490Z,102181.27
2018-09-03T13:12:59.588Z,102183.09
2018-09-03T13:15:57.666Z,102181.35
2018-09-03T13:18:55.966Z,102178.66
2018-09-03T13:21:54.226Z,102177.81
2018-09-03T13:24:52.346Z,102177.81
2018-09-03T13:27:51.494Z,102167.98
2018-09-03T13:30:49.528Z,102167.98
2018-09-03T13:33:48.715Z,102163.07
2018-09-03T13:36:46.712Z,102157.67
2018-09-03T13:39:46.761Z,102152.41
2018-09-03T13:42:45.066Z,102152.76
2018-09-03T13:45:43.345Z,102149.70
2018-09-03T13:48:41.447Z,102154.63
2018-09-03T13:51:39.695Z,102145.66
2018-09-03T13:54:37.694Z,102147.49
2018-09-03T13:57:36.156Z,102142.58
2018-09-03T14:00:33.870Z,102146.14
2018-09-03T14:03:32.362Z,102141.14
2018-09-03T14:06:31.736Z,102140.27
2018-09-03T14:09:29.863Z,102142.58
2018-09-03T14:12:27.943Z,102134.87
2018-09-03T14:15:26.137Z,102129.00
2018-09-03T14:18:24.254Z,102128.01
2018-09-03T14:21:22.726Z,102120.91
2018-09-03T14:24:20.315Z,102126.18
2018-09-03T14:27:24.500Z,102114.05
2018-09-03T14:30:22.517Z,102115.39
2018-09-03T14:33:20.541Z,102106.82
2018-09-03T14:36:18.586Z,102112.09
2018-09-03T14:39:18.942Z,102110.39
2018-09-03T14:42:17.145Z,102108.53
2018-09-03T14:45:15.313Z,102108.44
2018-09-03T14:48:13.018Z,102101.30
2018-09-03T14:51:11.239Z,102098.52
2018-09-03T14:54:09.311Z,102093.95
2018-09-03T14:57:07.752Z,102095.30
2018-09-03T15:00:05.827Z,102096.56
2018-09-03T15:03:04.755Z,102095.22
2018-09-03T15:06:02.569Z,102093.00
2018-09-03T15:09:00.505Z,102084.03
2018-09-03T15:11:58.538Z,102083.56
2018-09-03T15:14:56.868Z,102079.99
2018-09-03T15:17:54.985Z,102079.52
2018-09-03T15:20:53.166Z,102079.52
2018-09-03T15:23:50.958Z,102072.38
2018-09-03T15:26:49.122Z,102070.55
2018-09-03T15:29:47.093Z,102066.15
2018-09-03T15:32:45.456Z,102066.15
2018-09-03T15:35:44.437Z,102066.98
2018-09-03T15:38:42.377Z,102064.28
2018-09-03T15:41:40.472Z,102059.02
2018-09-03T15:44:38.647Z,102056.45
2018-09-03T15:47:36.563Z,102056.80
2018-09-03T15:50:34.833Z,102052.76
2018-09-03T15:53:33.813Z,102047.48
2018-09-03T15:56:33.031Z,102053.75
2018-09-03T15:59:31.015Z,102051.75
2018-09-03T16:02:29.146Z,102051.53
2018-09-03T16:05:28.142Z,102051.53
2018-09-03T16:08:26.738Z,102052.88
2018-09-03T16:11:24.868Z,102051.63
2018-09-03T16:14:23.117Z,102045.00
2018-09-03T16:17:21.360Z,102049.92
2018-09-03T16:20:19.394Z,102054.45
2018-09-03T16:23:17.559Z,102046.36
2018-09-03T16:26:15.484Z,102043.75
2018-09-03T16:29:13.474Z,102045.00
2018-09-03T16:32:11.621Z,102042.31
2018-09-03T16:35:10.706Z,102044.05
2018-09-03T16:38:09.012Z,102040.96
2018-09-03T16:41:07.137Z,102040.48
2018-09-03T16:44:05.205Z,102038.74
2018-09-03T16:47:03.028Z,102036.31
2018-09-03T16:50:01.192Z,102040.84
2018-09-03T16:52:59.375Z,102031.91
2018-09-03T16:55:57.915Z,102038.53
2018-09-03T16:58:57.062Z,102028.70
2018-09-03T17:01:55.989Z,102031.91
2018-09-03T17:04:55.172Z,102031.05
2018-09-03T17:07:53.295Z,102033.61
2018-09-03T17:10:52.368Z,102031.91
2018-09-03T17:13:50.435Z,102036.31
2018-09-03T17:16:48.607Z,102034.96
2018-09-03T17:19:46.713Z,102034.96
2018-09-03T17:22:44.463Z,102031.30
2018-09-03T17:25:43.445Z,102029.22
2018-09-03T17:28:41.389Z,102028.34
2018-09-03T17:31:39.232Z,102027.86
2018-09-03T17:34:37.484Z,102030.17
2018-09-03T17:37:35.852Z,102033.26
2018-09-03T17:40:33.988Z,102031.52
2018-09-03T17:43:32.117Z,102037.78
2018-09-03T17:46:29.979Z,102045.48
2018-09-03T17:49:28.072Z,102039.61
2018-09-03T17:52:27.342Z,102046.74
2018-09-03T17:55:25.809Z,102046.23
2018-09-03T17:58:23.955Z,102040.96
2018-09-03T18:01:22.108Z,102033.73
2018-09-03T18:04:20.258Z,102045.39
2018-09-03T18:07:18.697Z,102043.66
2018-09-03T18:10:16.710Z,102043.18
2018-09-03T18:13:14.886Z,102038.74
2018-09-03T18:16:12.850Z,102038.36
2018-09-03T18:19:12.121Z,102041.92
2018-09-03T18:22:11.076Z,102038.36
2018-09-03T18:25:09.351Z,102042.05
2018-09-03T18:28:07.861Z,102033.95
2018-09-03T18:31:06.312Z,102042.53
2018-09-03T18:34:04.461Z,102036.75
2018-09-03T18:37:02.917Z,102040.79
2018-09-03T18:40:00.883Z,102038.61
2018-09-03T18:43:00.072Z,102039.09
2018-09-03T18:45:58.353Z,102037.34
2018-09-03T18:48:56.586Z,102040.91
2018-09-03T18:51:54.622Z,102039.56
2018-09-03T18:54:52.657Z,102045.83
2018-09-03T18:57:50.978Z,102041.39
2018-09-03T19:00:50.136Z,102041.78
2018-09-03T19:03:48.043Z,102044.95
2018-09-03T19:06:46.391Z,102047.17
2018-09-03T19:09:44.571Z,102044.48
2018-09-03T19:12:43.519Z,102036.48
2018-09-03T19:15:41.830Z,102035.13
2018-09-03T19:18:41.354Z,102041.39
2018-09-03T19:21:39.445Z,102043.13
2018-09-03T19:24:38.875Z,102029.16
2018-09-03T19:27:38.734Z,102031.48
2018-09-03T19:30:38.005Z,102027.91
2018-09-03T19:33:37.199Z,102027.91
2018-09-03T19:36:36.221Z,102024.34
2018-09-03T19:39:34.092Z,102022.16
2018-09-03T19:42:32.724Z,102030.25
2018-09-03T19:45:31.482Z,102032.95
2018-09-03T19:48:29.952Z,102025.34
2018-09-03T19:51:29.499Z,102032.95
2018-09-03T19:54:27.904Z,102023.13
2018-09-03T19:57:26.113Z,102028.12
2018-09-03T20:00:25.028Z,102022.73
2018-09-03T20:03:23.212Z,102021.39
2018-09-03T20:06:21.654Z,102019.20
2018-09-03T20:09:21.815Z,102023.25
2018-09-03T20:12:21.139Z,102019.30
2018-09-03T20:15:22.451Z,102014.89
2018-09-03T20:18:20.785Z,102013.03
2018-09-03T20:21:18.928Z,102006.80
2018-09-03T20:24:18.167Z,102005.06
2018-09-03T20:27:16.220Z,102009.56
2018-09-03T20:30:14.252Z,102007.34
2018-09-03T20:33:12.551Z,102005.99
2018-09-03T20:36:11.926Z,102005.16
2018-09-03T20:39:11.679Z,102003.42
2018-09-03T20:42:10.856Z,102005.25
2018-09-03T20:45:08.896Z,102002.55
2018-09-03T20:48:09.316Z,102005.25
2018-09-03T20:51:07.316Z,102002.17
2018-09-03T20:54:06.608Z,102003.52
2018-09-03T20:57:04.741Z,101998.25
2018-09-03T21:00:02.922Z,102005.25
2018-09-03T21:03:00.850Z,102006.42
2018-09-03T21:06:00.059Z,102008.51
2018-09-03T21:08:57.965Z,102001.94
2018-09-03T21:11:56.043Z,102002.08
2018-09-03T21:14:53.972Z,101992.42
2018-09-03T21:17:52.268Z,101982.16
2018-09-03T21:20:49.916Z,101991.25
2018-09-03T21:23:48.137Z,101986.88
2018-09-03T21:26:46.118Z,101991.94
2018-09-03T21:29:46.063Z,101985.80
2018-09-03T21:32:45.260Z,101982.41
2018-09-03T21:35:43.561Z,101978.52
2018-09-03T21:38:42.687Z,101979.61
2018-09-03T21:41:40.988Z,101978.42
2018-09-03T21:44:40.103Z,101971.94
2018-09-03T21:47:38.455Z,101971.58
2018-09-03T21:50:36.470Z,101975.78
2018-09-03T21:53:35.606Z,101973.34
2018-09-03T21:56:34.762Z,101978.00
2018-09-03T21:59:32.976Z,101975.59
2018-09-03T22:02:30.746Z,101971.80
2018-09-03T22:05:29.009Z,101981.75
2018-09-03T22:08:27.265Z,101980.17
2018-09-03T22:11:25.151Z,101978.47
2018-09-03T22:14:23.150Z,101974.80
2018-09-03T22:17:21.379Z,101975.53
2018-09-03T22:20:19.988Z,101973.61
2018-09-03T22:23:18.052Z,101972.99
2018-09-03T22:26:15.889Z,101975.47
2018-09-03T22:29:14.184Z,101978.28
2018-09-03T22:32:12.187Z,101970.44
2018-09-03T22:35:10.655Z,101970.34
2018-09-03T22:38:08.560Z,101972.03
2018-09-03T22:41:06.886Z,101969.72
2018-09-03T22:44:04.798Z,101969.23
2018-09-03T22:47:03.425Z,101969.10
2018-09-03T22:50:03.860Z,101965.53
2018-09-03T22:53:03.235Z,101966.41
2018-09-03T22:56:03.019Z,101962.35
2018-09-03T22:59:02.131Z,101961.39
2018-09-03T23:02:01.302Z,101958.06
2018-09-03T23:05:02.935Z,101949.48
2018-09-03T23:08:04.708Z,101944.18
2018-09-03T23:11:06.890Z,101938.78
2018-09-03T23:14:09.062Z,101934.24
2018-09-03T23:17:09.994Z,101932.51
2018-09-03T23:20:11.361Z,101932.03
2018-09-03T23:23:13.616Z,101931.67
2018-09-03T23:26:16.462Z,101937.56
2018-09-03T23:29:19.852Z,101939.39
2018-09-03T23:32:22.094Z,101935.83
2018-09-03T23:35:23.253Z,101929.56
2018-09-03T23:38:25.199Z,101929.20
2018-09-03T23:41:27.393Z,101927.86
2018-09-03T23:44:29.392Z,101925.16
2018-09-03T23:47:31.329Z,101923.91
2018-09-03T23:50:32.472Z,101926.27
2018-09-03T23:53:33.599Z,101925.78
2018-09-03T23:56:34.097Z,101913.34
2018-09-03T23:59:34.896Z,101912.50
